Time;durP1;ratioP1;P1;durP2;ratioP2;P2;SDS_P1;SDS_P2;PMS_P1;PMS_P2;Temp;Humidity;BMP_temperature;BMP_pressure;BME280_temperature;BME280_humidity;BME280_pressure;Samples;Min_cycle;Max_cycle;Signal;HPM_P1;HPM_P2
2023/07/15 00:00:57;;;;;;;0.00;0.00;;;;;;;20.29;61.73;99784.38;5012014;28;20727;-76
2023/07/15 00:03:22;;;;;;;0.00;0.00;;;;;;;20.07;62.58;99764.88;5009284;28;20630;-76
2023/07/15 00:05:49;;;;;;;0.00;0.00;;;;;;;19.91;63.28;99770.00;5012157;28;20187;-76
2023/07/15 00:08:15;;;;;;;0.00;0.00;;;;;;;19.94;62.47;99760.88;5012019;28;20185;-76
2023/07/15 00:10:43;;;;;;;0.00;0.00;;;;;;;20.07;62.35;99773.19;5012257;28;20227;-76
2023/07/15 00:13:17;;;;;;;0.00;0.00;;;;;;;20.16;61.35;99765.31;5012050;28;20185;-76
2023/07/15 00:15:44;;;;;;;0.00;0.00;;;;;;;20.09;61.79;99756.16;5012113;28;20656;-76
2023/07/15 00:18:11;;;;;;;0.00;0.00;;;;;;;20.17;61.42;99763.34;5011427;28;20589;-76
2023/07/15 00:20:36;;;;;;;0.00;0.00;;;;;;;20.29;60.45;99762.19;5012662;28;20547;-76
2023/07/15 00:23:13;;;;;;;0.00;0.00;;;;;;;20.17;61.05;99755.81;5011517;28;20184;-76
2023/07/15 00:25:39;;;;;;;0.00;0.00;;;;;;;20.23;60.98;99753.44;5012722;28;20191;-76
2023/07/15 00:28:05;;;;;;;0.00;0.00;;;;;;;20.20;61.43;99754.22;5012641;28;20185;-76
2023/07/15 00:30:31;;;;;;;0.00;0.00;;;;;;;20.09;62.17;99745.88;5012250;28;20180;-75
2023/07/15 00:32:56;;;;;;;0.00;0.00;;;;;;;20.12;62.47;99753.44;5012211;28;20550;-76
2023/07/15 00:35:28;;;;;;;0.00;0.00;;;;;;;20.14;62.65;99753.81;5011091;28;20183;-75
2023/07/15 00:37:55;;;;;;;0.00;0.00;;;;;;;20.01;63.27;99747.06;5013088;28;20265;-76
2023/07/15 00:40:20;;;;;;;0.00;0.00;;;;;;;19.94;63.69;99747.00;5012643;28;20697;-76
2023/07/15 00:43:23;;;;;;;0.00;0.00;;;;;;;19.73;65.29;99739.44;5011785;28;20188;-76
2023/07/15 00:46:28;;;;;;;0.00;0.00;;;;;;;19.76;65.03;99746.97;5011357;28;20186;-76
2023/07/15 00:49:00;;;;;;;0.00;0.00;;;;;;;19.78;65.30;99743.78;5012575;28;20201;-76
2023/07/15 00:51:28;;;;;;;0.00;0.00;;;;;;;19.75;64.73;99741.81;5011448;28;20218;-76
2023/07/15 00:53:53;;;;;;;0.00;0.00;;;;;;;19.67;65.08;99738.22;5011334;28;20297;-75
2023/07/15 00:56:20;;;;;;;0.00;0.00;;;;;;;19.53;64.82;99727.84;5012746;28;20720;-77
2023/07/15 00:58:46;;;;;;;0.00;0.00;;;;;;;19.70;64.48;99737.44;5012514;28;20223;-76
2023/07/15 01:01:12;;;;;;;0.00;0.00;;;;;;;19.73;64.34;99741.41;5012333;28;20269;-76
2023/07/15 01:03:40;;;;;;;0.00;0.00;;;;;;;19.77;63.64;99739.44;5011381;28;20648;-76
2023/07/15 01:06:08;;;;;;;0.10;0.10;;;;;;;19.90;63.36;99741.47;5012527;28;20205;-76
2023/07/15 01:08:33;;;;;;;0.00;0.00;;;;;;;19.73;63.58;99722.00;5012286;28;20200;-76
2023/07/15 01:10:59;;;;;;;0.00;0.00;;;;;;;19.81;63.30;99729.16;5011198;28;20649;-76
2023/07/15 01:13:24;;;;;;;0.33;0.20;;;;;;;19.87;62.86;99724.81;5012407;28;20211;-76
2023/07/15 01:15:50;;;;;;;0.00;0.00;;;;;;;19.90;61.84;99712.94;5012108;28;20280;-76
2023/07/15 01:18:16;;;;;;;0.00;0.00;;;;;;;19.94;61.11;99712.94;5010679;28;20684;-76
2023/07/15 01:20:41;;;;;;;0.00;0.00;;;;;;;19.99;60.93;99718.91;5012164;28;20246;-76
2023/07/15 01:23:07;;;;;;;0.00;0.00;;;;;;;19.99;60.62;99709.81;5010785;28;20740;-76
2023/07/15 01:25:32;;;;;;;0.00;0.00;;;;;;;20.08;60.15;99707.44;5010790;28;20184;-76
2023/07/15 01:27:57;;;;;;;0.00;0.00;;;;;;;20.00;60.52;99701.09;5012392;28;20212;-76
2023/07/15 01:30:23;;;;;;;0.00;0.00;;;;;;;19.98;60.13;99699.91;5010851;28;20223;-76
2023/07/15 01:32:48;;;;;;;0.10;0.10;;;;;;;19.99;60.00;99682.09;5012593;28;20176;-76
2023/07/15 01:35:14;;;;;;;0.00;0.00;;;;;;;20.05;59.15;99691.59;5012418;28;20250;-76
2023/07/15 01:37:39;;;;;;;1.13;1.13;;;;;;;19.98;59.81;99686.84;5011945;28;20191;-76
2023/07/15 01:40:08;;;;;;;0.00;0.00;;;;;;;20.11;59.52;99690.81;5011789;28;20201;-76
2023/07/15 01:42:34;;;;;;;0.00;0.00;;;;;;;20.06;59.46;99688.41;5010617;28;20267;-76
2023/07/15 01:44:59;;;;;;;0.00;0.00;;;;;;;20.11;59.08;99684.47;5011707;28;20612;-76
2023/07/15 01:47:24;;;;;;;1.30;1.10;;;;;;;19.91;60.75;99687.59;5012102;28;20706;-76
2023/07/15 01:49:49;;;;;;;0.00;0.00;;;;;;;20.10;61.02;99686.44;5011507;28;20251;-76
2023/07/15 01:52:15;;;;;;;0.00;0.00;;;;;;;20.06;61.54;99693.97;5012273;28;20180;-76
2023/07/15 01:54:40;;;;;;;0.00;0.00;;;;;;;19.66;63.18;99677.63;5011493;28;20635;-76
2023/07/15 01:57:06;;;;;;;0.00;0.00;;;;;;;19.38;65.09;99689.38;5011619;28;20188;-76
2023/07/15 01:59:31;;;;;;;0.00;0.00;;;;;;;19.17;65.50;99671.47;5011224;28;20215;-76
2023/07/15 02:01:57;;;;;;;0.00;0.00;;;;;;;19.18;66.22;99680.56;5011962;28;20215;-76
2023/07/15 02:04:23;;;;;;;0.67;0.67;;;;;;;19.25;66.46;99686.97;5013969;28;20189;-76
2023/07/15 02:06:48;;;;;;;0.60;0.60;;;;;;;19.28;66.83;99679.84;5014981;28;20191;-76
2023/07/15 02:09:14;;;;;;;0.10;0.10;;;;;;;19.11;65.58;99666.72;5013678;28;20201;-76
2023/07/15 02:11:39;;;;;;;0.00;0.00;;;;;;;19.09;65.30;99663.50;5014622;28;20192;-76
2023/07/15 02:14:05;;;;;;;0.00;0.00;;;;;;;19.10;66.00;99673.44;5014841;28;20296;-75
2023/07/15 02:16:31;;;;;;;0.00;0.00;;;;;;;19.19;66.50;99665.53;5014871;28;20216;-76
2023/07/15 02:18:56;;;;;;;0.00;0.00;;;;;;;19.24;64.98;99663.22;5014463;28;20548;-76
2023/07/15 02:21:25;;;;;;;0.00;0.00;;;;;;;19.31;62.34;99643.06;5014677;28;20743;-76
2023/07/15 02:23:52;;;;;;;0.00;0.00;;;;;;;19.40;60.73;99634.38;5014970;28;20200;-76
2023/07/15 02:26:17;;;;;;;0.00;0.00;;;;;;;19.57;60.99;99642.78;5015111;28;20185;-76
2023/07/15 02:28:43;;;;;;;0.00;0.00;;;;;;;19.55;60.35;99630.50;5014529;28;20200;-75
2023/07/15 02:31:09;;;;;;;0.00;0.00;;;;;;;19.53;59.67;99624.53;5013186;28;20545;-76
2023/07/15 02:33:34;;;;;;;0.00;0.00;;;;;;;19.52;59.43;99625.69;5013240;28;20254;-76
2023/07/15 02:35:59;;;;;;;4.60;0.73;;;;;;;19.69;59.30;99626.97;5014444;28;20180;-76
2023/07/15 02:38:25;;;;;;;0.00;0.00;;;;;;;19.77;58.67;99631.31;5014249;28;20569;-76
2023/07/15 02:40:50;;;;;;;0.00;0.00;;;;;;;19.87;58.10;99622.25;5014015;28;20185;-76
2023/07/15 02:43:15;;;;;;;0.00;0.00;;;;;;;20.05;57.58;99636.91;5012961;28;20184;-76
2023/07/15 02:45:41;;;;;;;0.27;0.27;;;;;;;20.07;57.04;99626.22;5014203;28;20188;-76
2023/07/15 02:48:06;;;;;;;0.27;0.27;;;;;;;20.24;57.32;99629.38;5012903;28;20188;-76
2023/07/15 02:50:32;;;;;;;0.00;0.00;;;;;;;20.26;56.78;99624.25;5013969;28;20192;-76
2023/07/15 02:52:57;;;;;;;0.00;0.00;;;;;;;20.18;57.68;99617.91;5012878;28;20188;-76
2023/07/15 02:55:23;;;;;;;0.00;0.00;;;;;;;20.14;57.92;99619.91;5016708;28;20214;-78
2023/07/15 02:57:49;;;;;;;0.00;0.00;;;;;;;20.23;59.16;99630.56;5015338;28;20235;-76
2023/07/15 03:00:15;;;;;;;0.00;0.00;;;;;;;19.96;60.98;99632.94;5012484;28;20220;-76
2023/07/15 03:02:44;;;;;;;0.00;0.00;;;;;;;19.93;61.38;99623.44;5013802;28;20172;-76
2023/07/15 03:05:10;;;;;;;0.00;0.00;;;;;;;19.85;62.50;99619.09;5014055;28;20184;-76
2023/07/15 03:07:35;;;;;;;0.00;0.00;;;;;;;19.61;63.18;99610.31;5013831;28;20172;-76
2023/07/15 03:10:02;;;;;;;0.00;0.00;;;;;;;19.32;64.67;99614.97;5012407;28;20210;-76
2023/07/15 03:12:28;;;;;;;0.17;0.17;;;;;;;19.11;65.74;99608.56;5011875;28;20203;-76
2023/07/15 03:14:54;;;;;;;0.00;0.00;;;;;;;18.89;66.92;99611.22;5011890;28;20212;-75
2023/07/15 03:17:19;;;;;;;0.07;0.07;;;;;;;18.77;67.43;99599.66;5013944;28;20173;-76
2023/07/15 03:19:45;;;;;;;0.00;0.00;;;;;;;18.64;68.18;99610.28;5013252;28;20200;-76
2023/07/15 03:22:10;;;;;;;0.77;0.67;;;;;;;18.47;69.06;99600.66;5013659;28;20243;-76
2023/07/15 03:24:36;;;;;;;0.00;0.00;;;;;;;18.31;69.99;99609.25;5012134;28;20176;-76
2023/07/15 03:27:02;;;;;;;0.00;0.00;;;;;;;18.27;70.51;99608.44;5012877;28;20195;-76
2023/07/15 03:29:27;;;;;;;0.00;0.00;;;;;;;18.24;70.79;99616.69;5013233;28;20297;-76
2023/07/15 03:31:52;;;;;;;0.00;0.00;;;;;;;18.24;69.90;99614.72;5013385;28;20185;-76
2023/07/15 03:34:19;;;;;;;0.33;0.33;;;;;;;18.30;70.16;99618.72;5012039;28;20706;-76
2023/07/15 03:36:44;;;;;;;0.00;0.00;;;;;;;18.27;69.94;99622.25;5013345;28;20211;-76
2023/07/15 03:39:10;;;;;;;0.13;0.13;;;;;;;18.37;68.12;99613.25;5013274;28;20224;-76
2023/07/15 03:41:36;;;;;;;0.23;0.23;;;;;;;18.58;65.46;99617.34;5011784;28;20204;-75
2023/07/15 03:44:02;;;;;;;0.00;0.00;;;;;;;18.83;64.29;99617.50;5011948;28;20181;-75
2023/07/15 03:46:27;;;;;;;0.50;0.50;;;;;;;19.16;62.17;99617.28;5012999;28;20191;-75
2023/07/15 03:48:53;;;;;;;0.00;0.00;;;;;;;19.31;61.71;99612.56;5011651;28;20507;-75
2023/07/15 03:51:18;;;;;;;1.90;0.13;;;;;;;19.55;61.24;99613.88;5012856;28;20188;-75
2023/07/15 03:53:43;;;;;;;1.23;1.23;;;;;;;19.74;59.80;99618.25;5012832;28;20204;-75
2023/07/15 03:56:09;;;;;;;0.00;0.00;;;;;;;19.91;58.86;99623.03;5019222;28;20188;-78
2023/07/15 03:58:34;;;;;;;0.83;0.83;;;;;;;20.12;58.30;99614.75;5014726;28;20200;-76
2023/07/15 04:00:59;;;;;;;0.13;0.13;;;;;;;20.37;57.45;99627.78;5012802;28;20207;-76
2023/07/15 04:03:25;;;;;;;0.00;0.00;;;;;;;20.50;57.56;99624.25;5011517;28;20192;-76
2023/07/15 04:05:51;;;;;;;43.37;39.27;;;;;;;20.67;57.01;99622.63;5012621;28;20189;-76
2023/07/15 04:08:16;;;;;;;0.00;0.00;;;;;;;20.82;56.37;99622.59;5012717;28;20367;-76
2023/07/15 04:10:45;;;;;;;0.03;0.03;;;;;;;20.86;55.86;99620.63;5011961;28;20223;-77
2023/07/15 04:13:10;;;;;;;4.30;1.67;;;;;;;20.85;55.85;99611.50;5012058;28;20190;-75
2023/07/15 04:15:36;;;;;;;1.03;0.73;;;;;;;21.02;55.95;99615.41;5011485;28;20197;-76
2023/07/15 04:18:01;;;;;;;0.60;0.60;;;;;;;20.97;56.43;99615.81;5013078;28;20207;-76
2023/07/15 04:20:26;;;;;;;0.40;0.40;;;;;;;21.04;55.43;99608.25;5011587;28;20185;-76
2023/07/15 04:22:52;;;;;;;1.30;0.50;;;;;;;21.24;55.17;99622.44;5013210;28;20327;-76
2023/07/15 04:25:17;;;;;;;0.47;0.43;;;;;;;21.27;55.52;99609.78;5013039;28;20568;-76
2023/07/15 04:27:43;;;;;;;0.30;0.30;;;;;;;21.33;55.15;99614.50;5013798;28;20228;-77
2023/07/15 04:30:09;;;;;;;1.60;1.23;;;;;;;21.38;55.06;99622.41;5006164;28;20576;-76
2023/07/15 04:32:35;;;;;;;1.73;1.33;;;;;;;21.38;54.47;99611.31;5013293;28;20188;-77
2023/07/15 04:35:01;;;;;;;1.23;0.80;;;;;;;21.05;55.48;99604.28;5013116;28;20212;-76
2023/07/15 04:37:27;;;;;;;0.47;0.47;;;;;;;21.16;55.91;99615.34;5013623;28;20208;-77
2023/07/15 04:39:53;;;;;;;2.53;1.13;;;;;;;21.11;56.10;99601.88;5018005;28;20263;-77
2023/07/15 04:42:18;;;;;;;1.33;1.27;;;;;;;21.18;55.99;99614.94;5018127;28;20547;-77
2023/07/15 04:44:43;;;;;;;5.07;0.43;;;;;;;21.04;55.56;99607.47;5011203;28;20177;-77
2023/07/15 04:47:09;;;;;;;1.13;1.07;;;;;;;20.99;56.17;99608.69;5016902;28;20711;-77
2023/07/15 04:49:35;;;;;;;4.93;0.83;;;;;;;21.01;56.30;99617.41;5017563;28;20661;-77
2023/07/15 04:52:00;;;;;;;0.30;0.30;;;;;;;20.99;56.63;99617.00;5016457;28;20642;-77
2023/07/15 04:54:26;;;;;;;0.10;0.10;;;;;;;21.01;56.82;99602.72;5018827;28;20208;-76
2023/07/15 04:56:51;;;;;;;0.03;0.03;;;;;;;21.13;56.58;99613.41;5010581;28;20185;-78
2023/07/15 04:59:16;;;;;;;0.30;0.27;;;;;;;21.15;56.37;99607.44;5003148;23;20232;-79
2023/07/15 05:01:41;;;;;;;0.87;0.87;;;;;;;21.42;55.61;99618.84;4981973;28;20192;-80
2023/07/15 05:04:07;;;;;;;0.00;0.00;;;;;;;21.55;55.80;99615.19;5002302;28;20224;-79
2023/07/15 05:06:33;;;;;;;1.07;1.07;;;;;;;21.67;54.75;99609.16;4992941;28;20187;-79
2023/07/15 05:08:59;;;;;;;0.53;0.53;;;;;;;21.79;54.90;99619.00;5002879;28;20188;-80
2023/07/15 05:11:27;;;;;;;0.17;0.17;;;;;;;22.01;54.89;99618.88;5012144;23;20819;-88
2023/07/15 05:13:53;;;;;;;0.90;0.90;;;;;;;22.09;54.57;99625.97;5026754;28;20218;-88
2023/07/15 05:16:18;;;;;;;0.50;0.50;;;;;;;22.16;54.40;99617.59;5023626;28;20280;-89
2023/07/15 05:18:46;;;;;;;2.50;2.17;;;;;;;22.29;53.74;99631.81;5035086;28;20642;-88
2023/07/15 05:21:11;;;;;;;1.30;0.63;;;;;;;22.34;54.34;99623.78;5015912;28;20557;-90
2023/07/15 05:23:40;;;;;;;1.70;1.60;;;;;;;22.36;54.04;99629.75;4992397;28;20185;-89
2023/07/15 05:26:05;;;;;;;0.00;0.00;;;;;;;22.36;53.93;99621.38;5017643;28;20235;-89
2023/07/15 05:28:30;;;;;;;0.00;0.00;;;;;;;22.26;54.74;99623.03;5005553;28;20181;-89
2023/07/15 05:31:00;;;;;;;0.03;0.03;;;;;;;22.12;55.10;99625.16;5005616;28;20191;-88
2023/07/15 05:33:25;;;;;;;2.37;1.23;;;;;;;22.07;55.53;99633.94;5005887;28;20305;-89
2023/07/15 05:35:50;;;;;;;0.50;0.50;;;;;;;22.06;55.33;99621.25;4997673;28;20233;-89
2023/07/15 05:38:16;;;;;;;3.90;0.93;;;;;;;22.22;55.66;99622.28;5017628;28;20321;-88
2023/07/15 05:40:41;;;;;;;0.50;0.50;;;;;;;22.32;55.35;99628.97;5001198;28;20219;-89
2023/07/15 05:43:07;;;;;;;0.93;0.87;;;;;;;22.44;54.84;99631.25;5017555;28;20209;-88
2023/07/15 05:45:32;;;;;;;0.60;0.60;;;;;;;22.45;55.23;99632.84;5001323;28;20180;-89
2023/07/15 05:47:58;;;;;;;0.83;0.80;;;;;;;22.35;55.16;99630.94;5009537;28;20196;-89
2023/07/15 05:50:26;;;;;;;5.40;0.67;;;;;;;22.42;56.46;99649.56;5010050;28;20280;-88
2023/07/15 05:52:53;;;;;;;0.53;0.53;;;;;;;22.48;56.38;99642.38;5027443;28;20747;-89
2023/07/15 05:55:19;;;;;;;1.57;1.47;;;;;;;22.54;55.93;99638.72;5002744;28;20208;-88
2023/07/15 05:57:44;;;;;;;2.67;2.30;;;;;;;22.74;54.62;99649.28;5017776;28;20213;-90
2023/07/15 06:00:10;;;;;;;0.00;0.00;;;;;;;22.63;54.98;99638.25;5010179;28;20221;-89
2023/07/15 06:02:37;;;;;;;1.53;0.57;;;;;;;22.75;56.00;99646.09;5005239;28;20746;-88
2023/07/15 06:05:02;;;;;;;0.20;0.20;;;;;;;22.97;55.39;99649.44;5017471;28;20181;-89
2023/07/15 06:07:28;;;;;;;0.67;0.60;;;;;;;23.10;54.63;99642.13;5017938;28;20660;-89
2023/07/15 06:09:53;;;;;;;0.00;0.00;;;;;;;23.19;55.72;99649.22;5008703;28;20229;-89
2023/07/15 06:12:18;;;;;;;0.53;0.53;;;;;;;23.21;55.66;99655.94;5021189;28;20211;-89
2023/07/15 06:14:44;;;;;;;0.00;0.00;;;;;;;23.27;55.41;99648.69;5015492;28;20251;-90
2023/07/15 06:17:09;;;;;;;0.10;0.10;;;;;;;23.47;55.19;99646.06;5016024;28;20187;-89
2023/07/15 06:19:36;;;;;;;0.20;0.20;;;;;;;23.61;54.74;99651.50;4999608;28;20710;-89
2023/07/15 06:22:01;;;;;;;0.37;0.37;;;;;;;23.60;54.31;99638.75;5017927;28;20660;-89
2023/07/15 06:24:26;;;;;;;0.77;0.77;;;;;;;23.78;55.59;99649.66;5002584;28;20169;-90
2023/07/15 06:26:52;;;;;;;0.00;0.00;;;;;;;23.84;54.45;99644.38;4999780;28;20203;-90
2023/07/15 06:29:17;;;;;;;0.50;0.50;;;;;;;23.71;54.60;99636.59;5015115;28;20585;-89
2023/07/15 06:31:43;;;;;;;0.80;0.67;;;;;;;23.86;53.99;99636.38;4997644;28;20235;-89
2023/07/15 06:34:09;;;;;;;0.20;0.07;;;;;;;23.99;55.03;99635.38;4992034;28;20201;-89
2023/07/15 06:36:35;;;;;;;1.33;1.13;;;;;;;24.05;54.99;99638.50;5000088;28;20215;-89
2023/07/15 06:39:01;;;;;;;0.00;0.00;;;;;;;24.19;55.18;99632.69;5004348;28;20534;-90
2023/07/15 06:41:26;;;;;;;1.43;0.67;;;;;;;24.24;54.23;99637.00;5004843;28;20204;-88
2023/07/15 06:43:51;;;;;;;0.80;0.80;;;;;;;24.31;54.76;99645.28;5000631;28;20179;-89
2023/07/15 06:46:16;;;;;;;0.60;0.60;;;;;;;24.30;53.32;99630.53;5001540;28;20211;-89
2023/07/15 06:48:43;;;;;;;1.03;0.70;;;;;;;24.37;53.50;99635.22;4996610;28;20223;-89
2023/07/15 06:51:10;;;;;;;1.30;1.20;;;;;;;24.33;52.18;99621.31;5027927;28;20188;-89
2023/07/15 06:53:35;;;;;;;0.03;0.03;;;;;;;24.36;52.45;99619.66;5015183;28;20203;-89
2023/07/15 06:56:01;;;;;;;0.00;0.00;;;;;;;24.34;53.34;99636.06;5005204;28;20665;-89
2023/07/15 06:58:26;;;;;;;0.07;0.07;;;;;;;24.47;54.69;99644.63;5008053;28;20200;-88
2023/07/15 07:00:51;;;;;;;0.67;0.67;;;;;;;24.46;52.85;99620.72;4999983;28;20865;-89
2023/07/15 07:03:19;;;;;;;0.00;0.00;;;;;;;24.82;53.37;99632.00;5005363;28;20200;-90
2023/07/15 07:05:45;;;;;;;0.40;0.30;;;;;;;24.92;53.41;99631.03;4998095;28;20647;-91
2023/07/15 07:08:10;;;;;;;0.13;0.13;;;;;;;25.06;53.69;99649.56;4995576;28;20184;-89
2023/07/15 07:10:36;;;;;;;0.10;0.00;;;;;;;25.14;52.33;99637.78;5002640;28;20177;-88
2023/07/15 07:13:01;;;;;;;0.00;0.00;;;;;;;25.34;53.27;99646.19;5004505;28;20208;-91
2023/07/15 07:15:28;;;;;;;0.30;0.30;;;;;;;25.42;52.27;99632.81;5000311;28;20201;-88
2023/07/15 07:17:53;;;;;;;0.80;0.80;;;;;;;25.43;52.12;99632.38;4999575;28;20732;-90
2023/07/15 07:20:42;;;;;;;7.73;0.73;;;;;;;25.61;52.01;99640.41;5006920;28;20239;-90
2023/07/15 07:23:07;;;;;;;0.00;0.00;;;;;;;25.73;50.79;99639.75;5005195;28;20212;-90
2023/07/15 07:25:33;;;;;;;0.00;0.00;;;;;;;25.90;51.92;99635.00;4998750;28;20185;-90
2023/07/15 07:27:58;;;;;;;0.00;0.00;;;;;;;25.95;50.80;99623.25;4995935;28;20184;-91
2023/07/15 07:30:23;;;;;;;0.00;0.00;;;;;;;25.84;50.97;99614.31;5011663;28;20184;-90
2023/07/15 07:32:49;;;;;;;0.00;0.00;;;;;;;25.85;50.79;99615.91;5013260;28;20192;-90
2023/07/15 07:35:14;;;;;;;0.00;0.00;;;;;;;25.84;52.07;99610.75;5007439;28;20554;-90
2023/07/15 07:37:40;;;;;;;0.00;0.00;;;;;;;25.91;51.60;99616.19;5016998;28;20246;-91
2023/07/15 07:40:06;;;;;;;0.00;0.00;;;;;;;26.17;52.21;99617.13;5007583;28;20184;-90
2023/07/15 07:42:32;;;;;;;0.13;0.13;;;;;;;26.27;51.37;99614.06;5006720;28;20214;-90
2023/07/15 07:44:57;;;;;;;0.00;0.00;;;;;;;26.13;50.53;99614.44;5000756;28;20184;-90
2023/07/15 07:47:24;;;;;;;0.17;0.17;;;;;;;26.10;51.23;99612.50;5000334;28;20348;-90
2023/07/15 07:49:49;;;;;;;0.00;0.00;;;;;;;26.39;50.91;99604.22;4999069;28;20270;-91
2023/07/15 07:52:15;;;;;;;0.00;0.00;;;;;;;26.30;50.87;99604.00;5008546;28;20221;-90
2023/07/15 07:54:40;;;;;;;0.10;0.10;;;;;;;26.57;51.14;99604.53;5005712;28;20200;-90
2023/07/15 07:57:05;;;;;;;0.17;0.07;;;;;;;26.75;50.84;99603.25;5004035;28;20626;-92
2023/07/15 07:59:31;;;;;;;0.00;0.00;;;;;;;26.71;50.29;99594.16;4995452;28;20176;-91
2023/07/15 08:01:56;;;;;;;0.00;0.00;;;;;;;26.67;50.07;99585.84;5008191;28;20234;-91
2023/07/15 08:04:21;;;;;;;0.10;0.10;;;;;;;26.78;48.65;99586.34;4998956;28;20176;-91
2023/07/15 08:06:47;;;;;;;0.20;0.10;;;;;;;26.88;49.42;99587.28;5012862;28;20187;-91
2023/07/15 08:09:12;;;;;;;0.07;0.07;;;;;;;27.08;49.64;99593.53;5010929;28;20222;-92
2023/07/15 08:11:38;;;;;;;0.17;0.17;;;;;;;26.92;47.87;99580.34;5007296;28;20219;-91
2023/07/15 08:14:03;;;;;;;0.70;0.70;;;;;;;27.08;48.19;99595.56;5003705;28;20235;-90
2023/07/15 08:16:32;;;;;;;0.53;0.53;;;;;;;27.06;50.14;99598.03;5016002;28;20183;-91
2023/07/15 08:18:58;;;;;;;0.53;0.53;;;;;;;27.07;48.67;99594.00;5013256;28;20547;-91
2023/07/15 08:21:23;;;;;;;4.67;0.53;;;;;;;27.25;48.51;99597.84;5021902;28;20200;-91
2023/07/15 08:23:49;;;;;;;10.73;0.90;;;;;;;27.33;48.22;99594.81;5015976;28;20183;-91
2023/07/15 08:26:14;;;;;;;0.00;0.00;;;;;;;27.51;49.29;99601.47;5001651;28;20192;-91
2023/07/15 08:28:39;;;;;;;0.00;0.00;;;;;;;27.60;49.04;99597.19;4998163;28;20181;-91
2023/07/15 08:31:05;;;;;;;0.00;0.00;;;;;;;27.69;48.05;99600.16;5018144;28;20181;-91
2023/07/15 08:33:30;;;;;;;0.10;0.10;;;;;;;27.75;49.67;99601.94;5007700;28;20645;-91
2023/07/15 08:35:56;;;;;;;0.63;0.40;;;;;;;27.77;49.13;99602.28;5003938;28;20185;-91
2023/07/15 08:38:21;;;;;;;0.00;0.00;;;;;;;27.79;49.42;99597.03;4996116;28;20697;-91
2023/07/15 08:40:48;;;;;;;1.50;1.50;;;;;;;28.00;49.74;99603.19;5006314;28;20203;-91
2023/07/15 08:43:14;;;;;;;0.17;0.17;;;;;;;28.09;50.48;99611.72;5015649;28;20212;-91
2023/07/15 08:45:39;;;;;;;0.77;0.77;;;;;;;28.05;49.49;99599.78;5005475;28;20539;-91
2023/07/15 08:48:06;;;;;;;0.40;0.40;;;;;;;28.00;47.48;99589.13;4995828;28;20181;-90
2023/07/15 08:50:35;;;;;;;0.40;0.17;;;;;;;28.10;48.02;99585.97;5013004;28;20199;-90
2023/07/15 08:53:03;;;;;;;0.60;0.60;;;;;;;28.06;46.61;99582.50;5016662;28;20236;-91
2023/07/15 08:55:29;;;;;;;0.10;0.10;;;;;;;28.21;47.65;99596.88;5008985;28;20220;-91
2023/07/15 08:57:57;;;;;;;0.63;0.63;;;;;;;28.16;47.59;99595.41;5017189;28;20712;-91
2023/07/15 09:00:23;;;;;;;2.90;1.10;;;;;;;28.41;47.28;99597.41;5002201;28;20194;-91
2023/07/15 09:02:53;;;;;;;0.20;0.20;;;;;;;28.45;46.69;99595.25;5003118;28;20236;-92
2023/07/15 09:05:20;;;;;;;0.43;0.43;;;;;;;28.59;46.05;99593.97;4996671;28;20196;-90
2023/07/15 09:07:57;;;;;;;4.03;0.90;;;;;;;28.72;45.90;99577.84;4996006;28;20241;-91
2023/07/15 09:10:23;;;;;;;0.80;0.80;;;;;;;28.63;46.23;99579.78;5003277;28;20185;-90
2023/07/15 09:12:53;;;;;;;0.20;0.10;;;;;;;28.70;46.36;99588.75;5011150;28;20760;-91
2023/07/15 09:15:19;;;;;;;1.23;0.93;;;;;;;28.65;46.85;99583.72;5011640;28;20210;-91
2023/07/15 09:17:53;;;;;;;0.43;0.43;;;;;;;28.67;46.60;99598.09;5008813;28;20199;-92
2023/07/15 09:20:19;;;;;;;0.50;0.40;;;;;;;28.83;48.05;99608.38;5014677;28;20561;-91
2023/07/15 09:23:05;;;;;;;1.10;0.97;;;;;;;28.74;47.85;99606.28;5011821;28;20266;-91
2023/07/15 09:25:30;;;;;;;0.30;0.30;;;;;;;28.68;48.06;99610.13;5003653;28;20222;-91
2023/07/15 09:27:55;;;;;;;0.07;0.07;;;;;;;28.75;48.58;99605.03;5006768;28;20193;-91
2023/07/15 09:30:21;;;;;;;0.00;0.00;;;;;;;28.81;49.29;99612.91;5019474;28;20206;-91
2023/07/15 09:32:47;;;;;;;0.00;0.00;;;;;;;28.93;48.69;99609.25;4999931;28;20301;-91
2023/07/15 09:35:14;;;;;;;1.17;0.90;;;;;;;29.12;47.17;99601.75;4999596;28;20200;-91
2023/07/15 09:37:39;;;;;;;0.20;0.20;;;;;;;29.46;46.30;99612.91;4995104;28;20190;-92
2023/07/15 09:40:09;;;;;;;0.07;0.07;;;;;;;29.73;47.19;99617.13;5007272;28;20678;-92
2023/07/15 09:42:50;;;;;;;1.17;1.17;;;;;;;29.79;44.47;99604.00;5016912;28;20292;-90
2023/07/15 09:45:30;;;;;;;0.40;0.40;;;;;;;30.03;45.30;99619.09;5008772;28;20256;-90
2023/07/15 09:47:56;;;;;;;8.93;0.93;;;;;;;30.06;44.15;99606.94;5017876;28;20222;-90
2023/07/15 09:50:22;;;;;;;0.80;0.80;;;;;;;29.97;44.97;99606.91;5010495;28;20822;-91
2023/07/15 09:52:48;;;;;;;0.20;0.20;;;;;;;29.86;45.72;99610.13;4997456;28;20542;-92
2023/07/15 09:55:13;;;;;;;0.53;0.53;;;;;;;29.75;45.19;99604.13;5015779;28;20211;-92
2023/07/15 09:57:39;;;;;;;2.47;0.93;;;;;;;29.79;45.08;99612.44;5008334;28;20259;-92
2023/07/15 10:00:05;;;;;;;0.10;0.10;;;;;;;29.41;45.24;99607.88;5009548;28;20657;-91
2023/07/15 10:02:42;;;;;;;0.10;0.10;;;;;;;29.24;45.76;99621.38;5009021;28;20229;-91
2023/07/15 10:05:13;;;;;;;0.77;0.77;;;;;;;29.18;45.87;99633.66;5003551;28;20187;-92
2023/07/15 10:07:42;;;;;;;1.07;1.07;;;;;;;29.04;44.95;99635.75;5015254;28;20638;-91
2023/07/15 10:10:08;;;;;;;0.50;0.50;;;;;;;28.82;45.07;99626.50;5012190;28;20186;-91
2023/07/15 10:12:35;;;;;;;2.43;1.20;;;;;;;28.71;45.37;99642.97;5006524;28;20247;-91
2023/07/15 10:15:02;;;;;;;0.73;0.73;;;;;;;28.66;45.86;99635.91;5004713;28;20576;-91
2023/07/15 10:17:38;;;;;;;0.43;0.43;;;;;;;28.72;47.04;99644.53;5014352;28;20188;-92
2023/07/15 10:20:11;;;;;;;0.80;0.80;;;;;;;28.48;45.89;99646.94;5011762;28;20190;-90
2023/07/15 10:22:37;;;;;;;0.60;0.60;;;;;;;28.40;46.68;99649.22;5005947;28;20269;-90
2023/07/15 10:25:09;;;;;;;0.80;0.80;;;;;;;28.50;47.69;99663.34;5014694;28;20185;-91
2023/07/15 10:27:35;;;;;;;2.13;1.17;;;;;;;28.39;46.28;99667.34;4997185;28;20686;-91
2023/07/15 10:30:23;;;;;;;0.43;0.43;;;;;;;28.48;47.22;99688.31;5017867;28;20180;-91
2023/07/15 10:32:58;;;;;;;0.90;0.90;;;;;;;28.40;47.62;99708.25;4998258;28;20553;-91
2023/07/15 10:35:26;;;;;;;11.23;1.53;;;;;;;28.18;48.88;99710.13;4998035;28;20209;-90
2023/07/15 10:37:51;;;;;;;0.87;0.87;;;;;;;27.78;49.45;99710.56;4998202;28;20172;-90
2023/07/15 10:40:47;;;;;;;1.43;1.33;;;;;;;27.50;50.34;99731.81;5001147;28;20180;-91
2023/07/15 10:43:16;;;;;;;0.60;0.60;;;;;;;27.27;50.56;99718.00;4996611;28;20208;-91
2023/07/15 10:45:42;;;;;;;0.90;0.90;;;;;;;27.00;51.88;99732.34;5015216;28;20180;-90
2023/07/15 10:48:08;;;;;;;1.13;1.03;;;;;;;26.92;52.70;99745.78;5008713;28;20180;-91
2023/07/15 10:50:35;;;;;;;8.17;1.57;;;;;;;26.68;53.42;99750.78;4996668;28;20203;-90
2023/07/15 10:53:26;;;;;;;8.10;0.93;;;;;;;26.59;55.27;99758.19;5000034;28;20249;-90
2023/07/15 10:56:02;;;;;;;1.40;0.93;;;;;;;26.41;57.48;99794.25;5005005;28;20279;-90
2023/07/15 10:58:30;;;;;;;5.23;0.90;;;;;;;26.01;58.70;99792.28;4997278;28;20178;-90
2023/07/15 11:01:00;;;;;;;0.77;0.63;;;;;;;25.70;60.21;99797.34;4997054;28;20176;-91
2023/07/15 11:03:27;;;;;;;0.70;0.70;;;;;;;25.73;60.75;99809.66;4997595;28;20188;-90
2023/07/15 11:05:57;;;;;;;0.17;0.17;;;;;;;25.68;62.21;99815.75;4993007;28;20213;-90
2023/07/15 11:08:23;;;;;;;0.30;0.20;;;;;;;25.50;62.31;99807.69;5000866;28;20180;-90
2023/07/15 11:10:49;;;;;;;0.40;0.40;;;;;;;25.54;64.09;99819.59;4996927;28;20191;-90
2023/07/15 11:13:17;;;;;;;0.10;0.10;;;;;;;25.46;63.92;99809.75;4997227;28;20216;-91
2023/07/15 11:15:46;;;;;;;0.33;0.33;;;;;;;25.28;63.82;99793.31;4996865;28;20200;-91
2023/07/15 11:18:29;;;;;;;0.00;0.00;;;;;;;25.27;65.09;99791.72;4996986;28;20195;-90
2023/07/15 11:20:58;;;;;;;0.20;0.20;;;;;;;25.00;65.88;99782.59;4997661;28;20238;-91
2023/07/15 11:23:23;;;;;;;0.00;0.00;;;;;;;25.02;67.44;99803.34;5014021;28;20184;-90
2023/07/15 11:25:49;;;;;;;0.40;0.40;;;;;;;25.00;66.69;99788.19;5007890;28;20681;-89
2023/07/15 11:28:17;;;;;;;0.67;0.67;;;;;;;25.06;66.47;99795.72;5004615;28;20650;-90
2023/07/15 11:30:46;;;;;;;0.60;0.60;;;;;;;25.10;66.60;99804.03;5005580;28;20183;-91
2023/07/15 11:33:12;;;;;;;0.50;0.50;;;;;;;24.95;66.51;99803.44;4993722;28;20296;-90